createdAt,value
2018-09-11T00:00:40.223Z,1011.99
2018-09-11T00:01:40.426Z,1012.02
2018-09-11T00:02:40.550Z,1011.87
2018-09-11T00:03:40.761Z,1012.02
2018-09-11T00:04:40.963Z,1011.92
2018-09-11T00:05:41.237Z,1011.98
2018-09-11T00:06:41.474Z,1011.92
2018-09-11T00:07:41.693Z,1011.88
2018-09-11T00:08:41.820Z,1011.93
2018-09-11T00:09:42.213Z,1011.90
2018-09-11T00:10:42.485Z,1011.87
2018-09-11T00:11:42.868Z,1011.80
2018-09-11T00:12:43.084Z,1011.80
2018-09-11T00:13:43.287Z,1011.86
2018-09-11T00:14:43.483Z,1011.82
2018-09-11T00:15:43.585Z,1011.87
2018-09-11T00:16:43.929Z,1011.83
2018-09-11T00:17:44.155Z,1011.80
2018-09-11T00:18:44.293Z,1011.80
2018-09-11T00:19:44.620Z,1011.89
2018-09-11T00:20:44.758Z,1011.94
2018-09-11T00:21:44.967Z,1011.85
2018-09-11T00:22:45.180Z,1011.84
2018-09-11T00:23:45.426Z,1011.90
2018-09-11T00:24:45.693Z,1011.93
2018-09-11T00:25:45.912Z,1011.89
2018-09-11T00:26:46.117Z,1011.82
2018-09-11T00:27:46.318Z,1011.84
2018-09-11T00:28:46.555Z,1011.88
2018-09-11T00:29:46.756Z,1011.92
2018-09-11T00:30:47.008Z,1011.84
2018-09-11T00:31:47.136Z,1011.85
2018-09-11T00:32:47.251Z,1011.92
2018-09-11T00:33:47.428Z,1011.86
2018-09-11T00:34:47.604Z,1011.93
2018-09-11T00:35:47.820Z,1011.87
2018-09-11T00:36:48.008Z,1011.86
2018-09-11T00:37:48.735Z,1011.84
2018-09-11T00:38:48.958Z,1011.88
2018-09-11T00:39:49.256Z,1011.83
2018-09-11T00:40:49.672Z,1011.87
2018-09-11T00:41:49.987Z,1011.85
2018-09-11T00:42:50.609Z,1011.86
2018-09-11T00:43:50.728Z,1011.91
2018-09-11T00:44:50.723Z,1011.91
2018-09-11T00:45:51.214Z,1011.90
2018-09-11T00:46:51.349Z,1011.84
2018-09-11T00:47:51.867Z,1011.91
2018-09-11T00:48:51.783Z,1011.93
2018-09-11T00:49:51.861Z,1011.91
2018-09-11T00:50:51.990Z,1011.94
2018-09-11T00:51:52.034Z,1011.95
2018-09-11T00:52:52.402Z,1011.87
2018-09-11T00:53:52.917Z,1011.83
2018-09-11T00:54:52.805Z,1011.96
2018-09-11T00:55:53.156Z,1011.88
2018-09-11T00:56:53.659Z,1011.87
2018-09-11T00:57:53.498Z,1012.05
2018-09-11T00:58:53.965Z,1011.94
2018-09-11T00:59:54.393Z,1011.99
2018-09-11T01:00:54.648Z,1012.12
2018-09-11T01:01:54.958Z,1012.07
2018-09-11T01:02:55.160Z,1012.13
2018-09-11T01:03:55.392Z,1012.13
2018-09-11T01:04:55.584Z,1012.09
2018-09-11T01:05:55.856Z,1012.06
2018-09-11T01:06:56.112Z,1012.04
2018-09-11T01:07:56.330Z,1012.09
2018-09-11T01:08:56.531Z,1012.10
2018-09-11T01:09:56.751Z,1012.11
2018-09-11T01:10:56.953Z,1012.06
2018-09-11T01:11:57.160Z,1012.07
2018-09-11T01:12:57.459Z,1012.09
2018-09-11T01:13:57.597Z,1012.05
2018-09-11T01:14:57.816Z,1012.05
2018-09-11T01:15:57.918Z,1012.08
2018-09-11T01:16:58.125Z,1012.06
2018-09-11T01:17:58.344Z,1012.12
2018-09-11T01:18:58.574Z,1012.17
2018-09-11T01:19:58.766Z,1012.23
2018-09-11T01:20:58.967Z,1012.19
2018-09-11T01:21:59.071Z,1012.19
2018-09-11T01:22:59.362Z,1012.26
2018-09-11T01:23:59.510Z,1012.19
2018-09-11T01:24:59.977Z,1012.14
2018-09-11T01:26:00.172Z,1012.14
2018-09-11T01:27:00.333Z,1012.18
2018-09-11T01:28:00.616Z,1012.11
2018-09-11T01:29:00.769Z,1012.26
2018-09-11T01:30:00.973Z,1012.20
2018-09-11T01:32:01.138Z,1012.20
2018-09-11T01:33:01.345Z,1012.20
2018-09-11T01:34:01.517Z,1012.20
2018-09-11T01:35:02.113Z,1012.25
2018-09-11T01:36:02.191Z,1012.24
2018-09-11T01:37:01.779Z,1012.32
2018-09-11T01:38:02.064Z,1012.25
2018-09-11T01:39:02.354Z,1012.24
2018-09-11T01:40:02.631Z,1012.26
2018-09-11T01:41:03.174Z,1012.31
2018-09-11T01:42:03.186Z,1012.27
2018-09-11T01:43:03.387Z,1012.26
2018-09-11T01:44:03.303Z,1012.27
2018-09-11T01:45:04.225Z,1012.34
2018-09-11T01:46:04.709Z,1012.31
2018-09-11T01:47:05.159Z,1012.31
2018-09-11T01:48:05.573Z,1012.31
2018-09-11T01:49:05.188Z,1012.31
2018-09-11T01:50:06.307Z,1012.28
2018-09-11T01:51:06.004Z,1012.31
2018-09-11T01:52:06.519Z,1012.36
2018-09-11T01:53:06.529Z,1012.33
2018-09-11T01:54:06.648Z,1012.28
2018-09-11T01:55:06.440Z,1012.36
2018-09-11T01:56:06.854Z,1012.34
2018-09-11T01:57:07.139Z,1012.32
2018-09-11T01:58:07.277Z,1012.37
2018-09-11T01:59:07.357Z,1012.43
2018-09-11T02:00:07.391Z,1012.44
2018-09-11T02:01:07.343Z,1012.35
2018-09-11T02:02:07.669Z,1012.39
2018-09-11T02:03:08.139Z,1012.39
2018-09-11T02:04:08.223Z,1012.47
2018-09-11T02:05:08.636Z,1012.40
2018-09-11T02:06:08.783Z,1012.39
2018-09-11T02:07:09.001Z,1012.42
2018-09-11T02:08:09.122Z,1012.40
2018-09-11T02:10:09.332Z,1012.30
2018-09-11T02:11:09.524Z,1012.31
2018-09-11T02:12:09.656Z,1012.39
2018-09-11T02:13:10.039Z,1012.36
2018-09-11T02:14:10.146Z,1012.40
2018-09-11T02:15:10.400Z,1012.41
2018-09-11T02:16:10.846Z,1012.43
2018-09-11T02:17:11.045Z,1012.37
2018-09-11T02:18:11.405Z,1012.37
2018-09-11T02:19:11.611Z,1012.49
2018-09-11T02:20:11.749Z,1012.49
2018-09-11T02:21:12.122Z,1012.53
2018-09-11T02:22:12.212Z,1012.54
2018-09-11T02:23:12.376Z,1012.43
2018-09-11T02:24:12.596Z,1012.48
2018-09-11T02:25:12.983Z,1012.51
2018-09-11T02:26:13.302Z,1012.61
2018-09-11T02:27:13.559Z,1012.51
2018-09-11T02:28:13.823Z,1012.55
2018-09-11T02:29:13.999Z,1012.57
2018-09-11T02:30:14.081Z,1012.56
2018-09-11T02:31:14.480Z,1012.67
2018-09-11T02:32:14.706Z,1012.62
2018-09-11T02:33:14.935Z,1012.62
2018-09-11T02:34:15.123Z,1012.68
2018-09-11T02:35:15.674Z,1012.70
2018-09-11T02:36:15.328Z,1012.60
2018-09-11T02:37:15.580Z,1012.66
2018-09-11T02:38:15.786Z,1012.67
2018-09-11T02:39:16.105Z,1012.66
2018-09-11T02:40:16.666Z,1012.62
2018-09-11T02:41:16.268Z,1012.66
2018-09-11T02:42:16.664Z,1012.66
2018-09-11T02:43:16.817Z,1012.65
2018-09-11T02:45:17.287Z,1012.66
2018-09-11T02:46:17.442Z,1012.65
2018-09-11T02:47:17.697Z,1012.66
2018-09-11T02:48:18.151Z,1012.58
2018-09-11T02:49:18.982Z,1012.59
2018-09-11T02:50:19.404Z,1012.67
2018-09-11T02:51:19.913Z,1012.69
2018-09-11T02:52:19.829Z,1012.70
2018-09-11T02:53:20.235Z,1012.75
2018-09-11T02:54:20.749Z,1012.69
2018-09-11T02:55:20.809Z,1012.73
2018-09-11T02:56:20.870Z,1012.73
2018-09-11T02:57:20.974Z,1012.79
2018-09-11T02:58:21.086Z,1012.76
2018-09-11T02:59:20.887Z,1012.72
2018-09-11T03:00:21.314Z,1012.75
2018-09-11T03:01:21.615Z,1012.73
2018-09-11T03:02:22.011Z,1012.81
2018-09-11T03:03:22.217Z,1012.80
2018-09-11T03:04:22.116Z,1012.82
2018-09-11T03:05:22.544Z,1012.81
2018-09-11T03:06:22.875Z,1012.84
2018-09-11T03:07:23.205Z,1012.92
2018-09-11T03:08:23.591Z,1012.87
2018-09-11T03:09:23.979Z,1012.86
2018-09-11T03:10:24.426Z,1012.91
2018-09-11T03:11:24.774Z,1012.85
2018-09-11T03:12:25.051Z,1012.82
2018-09-11T03:13:25.458Z,1012.89
2018-09-11T03:14:25.898Z,1012.94
2018-09-11T03:15:26.038Z,1012.94
2018-09-11T03:16:26.241Z,1012.93
2018-09-11T03:17:26.562Z,1012.93
2018-09-11T03:18:26.664Z,1012.89
2018-09-11T03:19:26.876Z,1012.89
2018-09-11T03:20:27.104Z,1012.87
2018-09-11T03:21:27.291Z,1012.94
2018-09-11T03:22:27.522Z,1013.02
2018-09-11T03:23:27.785Z,1012.91
2018-09-11T03:24:28.057Z,1012.95
2018-09-11T03:25:28.259Z,1012.97
2018-09-11T03:26:28.456Z,1012.93
2018-09-11T03:27:28.664Z,1012.91
2018-09-11T03:28:28.926Z,1012.93
2018-09-11T03:29:29.293Z,1013.00
2018-09-11T03:30:29.519Z,1013.01
2018-09-11T03:31:29.623Z,1012.96
2018-09-11T03:32:29.835Z,1012.99
2018-09-11T03:33:30.115Z,1012.99
2018-09-11T03:34:30.266Z,1013.00
2018-09-11T03:35:30.477Z,1013.04
2018-09-11T03:36:30.677Z,1013.02
2018-09-11T03:37:30.789Z,1012.99
2018-09-11T03:38:31.152Z,1013.07
2018-09-11T03:39:31.346Z,1013.04
2018-09-11T03:40:31.568Z,1013.07
2018-09-11T03:41:31.675Z,1013.03
2018-09-11T03:42:31.908Z,1013.00
2018-09-11T03:43:32.029Z,1012.92
2018-09-11T03:44:32.177Z,1012.92
2018-09-11T03:45:32.436Z,1012.87
2018-09-11T03:46:32.588Z,1012.88
2018-09-11T03:47:32.851Z,1012.94
2018-09-11T03:48:33.290Z,1012.82
2018-09-11T03:49:34.320Z,1012.86
2018-09-11T03:50:34.025Z,1012.82
2018-09-11T03:51:34.228Z,1012.96
2018-09-11T03:52:34.344Z,1012.88
2018-09-11T03:53:34.874Z,1012.96
2018-09-11T03:54:34.970Z,1012.91
2018-09-11T03:55:34.888Z,1012.92
2018-09-11T03:56:35.189Z,1012.92
2018-09-11T03:57:35.805Z,1012.95
2018-09-11T03:58:35.814Z,1013.03
2018-09-11T03:59:35.820Z,1012.90
2018-09-11T04:00:35.633Z,1012.94
2018-09-11T04:01:36.143Z,1012.94
2018-09-11T04:02:36.041Z,1012.97
2018-09-11T04:03:36.359Z,1012.93
2018-09-11T04:04:36.875Z,1012.97
2018-09-11T04:05:36.734Z,1012.96
2018-09-11T04:06:36.881Z,1012.95
2018-09-11T04:07:37.036Z,1012.94
2018-09-11T04:08:37.200Z,1013.00
2018-09-11T04:09:37.112Z,1012.95
2018-09-11T04:10:37.626Z,1012.93
2018-09-11T04:11:37.532Z,1012.89
2018-09-11T04:12:37.924Z,1012.99
2018-09-11T04:13:38.362Z,1013.01
2018-09-11T04:14:38.736Z,1012.96
2018-09-11T04:15:39.401Z,1013.00
2018-09-11T04:16:39.474Z,1013.00
2018-09-11T04:17:39.323Z,1013.03
2018-09-11T04:18:40.137Z,1013.07
2018-09-11T04:19:39.870Z,1013.06
2018-09-11T04:20:40.103Z,1013.01
2018-09-11T04:21:40.366Z,1013.03
2018-09-11T04:22:40.657Z,1013.06
2018-09-11T04:23:40.830Z,1013.04
2018-09-11T04:24:41.178Z,1013.04
2018-09-11T04:25:41.612Z,1013.08
2018-09-11T04:26:41.639Z,1013.04
2018-09-11T04:27:41.864Z,1013.04
2018-09-11T04:28:42.098Z,1013.08
2018-09-11T04:29:42.324Z,1013.06
2018-09-11T04:30:42.509Z,1013.03
2018-09-11T04:31:42.710Z,1013.04
2018-09-11T04:32:42.919Z,1013.09
2018-09-11T04:33:43.286Z,1013.04
2018-09-11T04:34:43.518Z,1013.00
2018-09-11T04:35:43.739Z,1013.06
2018-09-11T04:36:43.862Z,1013.06
2018-09-11T04:37:44.072Z,1013.03
2018-09-11T04:38:44.284Z,1013.15
2018-09-11T04:39:44.520Z,1013.11
2018-09-11T04:40:44.723Z,1013.08
2018-09-11T04:41:44.940Z,1013.08
2018-09-11T04:42:45.132Z,1013.05
2018-09-11T04:43:45.346Z,1013.09
2018-09-11T04:44:45.483Z,1013.00
2018-09-11T04:45:45.605Z,1013.04
2018-09-11T04:46:45.828Z,1013.04
2018-09-11T04:47:46.037Z,1012.97
2018-09-11T04:48:46.241Z,1012.98
2018-09-11T04:49:46.408Z,1012.96
2018-09-11T04:50:46.633Z,1012.94
2018-09-11T04:51:46.963Z,1012.92
2018-09-11T04:52:47.138Z,1012.91
2018-09-11T04:53:47.345Z,1012.89
2018-09-11T04:54:47.479Z,1012.91
2018-09-11T04:55:47.582Z,1012.86
2018-09-11T04:56:47.780Z,1012.88
2018-09-11T04:57:48.279Z,1012.83
2018-09-11T04:58:49.005Z,1012.85
2018-09-11T04:59:49.319Z,1012.88
2018-09-11T05:00:49.848Z,1012.82
2018-09-11T05:01:49.638Z,1012.90
2018-09-11T05:02:50.156Z,1012.97
2018-09-11T05:03:50.163Z,1013.07
2018-09-11T05:04:50.170Z,1012.97
2018-09-11T05:05:50.193Z,1013.03
2018-09-11T05:06:50.289Z,1013.02
2018-09-11T05:07:50.291Z,1013.05
2018-09-11T05:08:50.302Z,1013.00
2018-09-11T05:09:50.306Z,1013.01
2018-09-11T05:10:50.223Z,1012.97
2018-09-11T05:11:50.830Z,1012.96
2018-09-11T05:12:50.838Z,1012.96
2018-09-11T05:13:50.847Z,1013.00
2018-09-11T05:14:50.954Z,1013.05
2018-09-11T05:15:50.961Z,1013.00
2018-09-11T05:16:51.078Z,1012.99
2018-09-11T05:17:51.177Z,1013.01
2018-09-11T05:18:51.184Z,1012.94
2018-09-11T05:19:51.399Z,1012.98
2018-09-11T05:20:51.917Z,1013.04
2018-09-11T05:21:51.726Z,1013.06
2018-09-11T05:22:51.924Z,1013.05
2018-09-11T05:23:52.127Z,1013.09
2018-09-11T05:24:52.210Z,1012.99
2018-09-11T05:25:52.214Z,1013.12
2018-09-11T05:26:52.218Z,1013.06
2018-09-11T05:27:52.258Z,1013.01
2018-09-11T05:28:52.122Z,1013.07
2018-09-11T05:29:52.506Z,1013.10
2018-09-11T05:30:52.899Z,1013.19
2018-09-11T05:31:53.426Z,1013.21
2018-09-11T05:32:53.312Z,1013.18
2018-09-11T05:33:53.648Z,1013.22
2018-09-11T05:34:59.488Z,1013.25
2018-09-11T05:35:54.384Z,1013.24
2018-09-11T05:36:54.678Z,1013.28
2018-09-11T05:37:54.814Z,1013.29
2018-09-11T05:38:54.920Z,1013.28
2018-09-11T05:39:55.042Z,1013.27
2018-09-11T05:40:55.392Z,1013.22
2018-09-11T05:41:55.649Z,1013.31
2018-09-11T05:42:55.868Z,1013.30
2018-09-11T05:43:56.087Z,1013.28
2018-09-11T05:44:56.224Z,1013.35
2018-09-11T05:45:56.321Z,1013.33
2018-09-11T05:46:56.514Z,1013.33
2018-09-11T05:47:56.619Z,1013.39
2018-09-11T05:48:56.736Z,1013.40
2018-09-11T05:49:56.839Z,1013.36
2018-09-11T05:50:57.154Z,1013.35
2018-09-11T05:51:57.429Z,1013.30
2018-09-11T05:52:57.579Z,1013.31
2018-09-11T05:53:57.792Z,1013.38
2018-09-11T05:54:57.894Z,1013.39
2018-09-11T05:55:58.264Z,1013.41
2018-09-11T05:56:58.382Z,1013.58
2018-09-11T05:57:58.526Z,1013.56
2018-09-11T05:58:58.742Z,1013.65
2018-09-11T05:59:58.948Z,1013.65
2018-09-11T06:00:59.069Z,1013.63
2018-09-11T06:01:59.272Z,1013.61
2018-09-11T06:02:59.496Z,1013.57
2018-09-11T06:03:59.692Z,1013.58
2018-09-11T06:04:59.905Z,1013.56
2018-09-11T06:06:00.021Z,1013.58
2018-09-11T06:07:00.218Z,1013.58
2018-09-11T06:08:00.443Z,1013.57
2018-09-11T06:09:00.642Z,1013.56
2018-09-11T06:10:00.880Z,1013.52
2018-09-11T06:11:01.013Z,1013.52
2018-09-11T06:12:01.135Z,1013.53
2018-09-11T06:13:01.375Z,1013.54
2018-09-11T06:14:01.886Z,1013.53
2018-09-11T06:15:01.531Z,1013.47
2018-09-11T06:16:02.059Z,1013.47
2018-09-11T06:17:01.755Z,1013.49
2018-09-11T06:18:01.841Z,1013.52
2018-09-11T06:19:02.111Z,1013.53
2018-09-11T06:20:02.515Z,1013.53
2018-09-11T06:21:02.956Z,1013.60
2018-09-11T06:22:03.985Z,1013.58
2018-09-11T06:23:03.902Z,1013.49
2018-09-11T06:24:04.410Z,1013.53
2018-09-11T06:25:04.318Z,1013.57
2018-09-11T06:26:04.524Z,1013.50
2018-09-11T06:27:06.276Z,1013.55
2018-09-11T06:28:05.254Z,1013.55
2018-09-11T06:29:05.831Z,1013.56
2018-09-11T06:30:05.369Z,1013.56
2018-09-11T06:31:05.785Z,1013.55
2018-09-11T06:32:06.213Z,1013.57
2018-09-11T06:33:06.618Z,1013.56
2018-09-11T06:34:06.932Z,1013.58
2018-09-11T06:35:07.054Z,1013.59
2018-09-11T06:36:07.222Z,1013.59
2018-09-11T06:37:07.373Z,1013.58
2018-09-11T06:38:07.426Z,1013.59
2018-09-11T06:39:07.495Z,1013.57
2018-09-11T06:40:07.425Z,1013.56
2018-09-11T06:41:07.655Z,1013.57
2018-09-11T06:42:07.917Z,1013.54
2018-09-11T06:43:08.342Z,1013.60
2018-09-11T06:44:08.499Z,1013.61
2018-09-11T06:45:09.230Z,1013.59
2018-09-11T06:46:09.316Z,1013.60
2018-09-11T06:47:09.578Z,1013.56
2018-09-11T06:48:09.570Z,1013.58
2018-09-11T06:49:09.496Z,1013.58
2018-09-11T06:50:09.774Z,1013.61
2018-09-11T06:51:10.017Z,1013.61
2018-09-11T06:52:10.111Z,1013.63
2018-09-11T06:53:10.535Z,1013.50
2018-09-11T06:54:10.648Z,1013.53
2018-09-11T06:55:11.051Z,1013.65
2018-09-11T06:56:11.396Z,1013.59
2018-09-11T06:57:11.803Z,1013.59
2018-09-11T06:58:11.960Z,1013.56
2018-09-11T06:59:12.287Z,1013.58
2018-09-11T07:00:12.429Z,1013.57
2018-09-11T07:01:12.565Z,1013.46
2018-09-11T07:02:12.781Z,1013.47
2018-09-11T07:03:13.024Z,1013.43
2018-09-11T07:04:13.208Z,1013.43
2018-09-11T07:05:13.389Z,1013.46
2018-09-11T07:06:13.543Z,1013.48
2018-09-11T07:07:13.742Z,1013.53
2018-09-11T07:08:13.880Z,1013.54
2018-09-11T07:09:14.047Z,1013.49
2018-09-11T07:10:14.349Z,1013.49
2018-09-11T07:11:14.571Z,1013.54
2018-09-11T07:12:14.781Z,1013.53
2018-09-11T07:13:14.880Z,1013.55
2018-09-11T07:14:15.091Z,1013.55
2018-09-11T07:15:15.708Z,1013.54
2018-09-11T07:16:15.426Z,1013.55
2018-09-11T07:17:15.686Z,1013.42
2018-09-11T07:18:15.860Z,1013.54
2018-09-11T07:19:16.058Z,1013.53
2018-09-11T07:20:16.722Z,1013.53
2018-09-11T07:21:16.676Z,1013.52
2018-09-11T07:22:16.911Z,1013.60
2018-09-11T07:23:17.147Z,1013.54
2018-09-11T07:24:17.314Z,1013.56
2018-09-11T07:25:17.581Z,1013.63
2018-09-11T07:26:17.783Z,1013.60
2018-09-11T07:27:18.131Z,1013.54
2018-09-11T07:28:18.901Z,1013.62
2018-09-11T07:29:19.272Z,1013.65
2018-09-11T07:30:19.612Z,1013.60
2018-09-11T07:31:20.008Z,1013.61
2018-09-11T07:32:20.628Z,1013.60
2018-09-11T07:33:20.732Z,1013.64
2018-09-11T07:34:20.843Z,1013.63
2018-09-11T07:35:20.859Z,1013.61
2018-09-11T07:36:20.915Z,1013.71
2018-09-11T07:37:21.093Z,1013.69
2018-09-11T07:38:21.379Z,1013.65
2018-09-11T07:39:21.587Z,1013.69
2018-09-11T07:40:21.813Z,1013.62
2018-09-11T07:41:22.020Z,1013.67
2018-09-11T07:42:22.103Z,1013.69
2018-09-11T07:43:22.093Z,1013.67
2018-09-11T07:44:22.430Z,1013.70
2018-09-11T07:45:22.784Z,1013.64
2018-09-11T07:46:23.117Z,1013.70
2018-09-11T07:47:23.497Z,1013.71
2018-09-11T07:48:24.207Z,1013.71
2018-09-11T07:49:24.154Z,1013.76
2018-09-11T07:50:24.537Z,1013.67
2018-09-11T07:51:24.762Z,1013.67
2018-09-11T07:52:24.960Z,1013.66
2018-09-11T07:54:25.090Z,1013.72
2018-09-11T07:55:25.381Z,1013.63
2018-09-11T07:56:25.521Z,1013.61
2018-09-11T07:57:25.751Z,1013.67
2018-09-11T07:58:26.002Z,1013.60
2018-09-11T07:59:26.141Z,1013.64
2018-09-11T08:00:26.507Z,1013.68
2018-09-11T08:01:26.638Z,1013.74
2018-09-11T08:02:26.812Z,1013.77
2018-09-11T08:03:27.037Z,1013.73
2018-09-11T08:04:27.212Z,1013.69
2018-09-11T08:05:27.482Z,1013.77
2018-09-11T08:06:27.589Z,1013.75
2018-09-11T08:07:27.751Z,1013.81
2018-09-11T08:08:27.964Z,1013.80
2018-09-11T08:09:28.225Z,1013.83
2018-09-11T08:10:28.374Z,1013.76
2018-09-11T08:11:28.482Z,1013.80
2018-09-11T08:12:28.726Z,1013.80
2018-09-11T08:13:28.944Z,1013.77
2018-09-11T08:14:29.108Z,1013.78
2018-09-11T08:15:29.327Z,1013.78
2018-09-11T08:16:29.598Z,1013.79
2018-09-11T08:17:29.760Z,1013.75
2018-09-11T08:18:29.955Z,1013.75
2018-09-11T08:19:30.164Z,1013.85
2018-09-11T08:20:30.406Z,1013.81
2018-09-11T08:21:30.649Z,1013.79
2018-09-11T08:22:30.800Z,1013.86
2018-09-11T08:23:31.009Z,1013.76
2018-09-11T08:24:31.221Z,1013.85
2018-09-11T08:25:31.492Z,1013.85
2018-09-11T08:26:31.845Z,1013.72
2018-09-11T08:27:32.105Z,1013.82
2018-09-11T08:28:32.356Z,1013.80
2018-09-11T08:29:32.519Z,1013.79
2018-09-11T08:30:32.705Z,1013.84
2018-09-11T08:31:32.950Z,1013.91
2018-09-11T08:32:33.720Z,1013.83
2018-09-11T08:33:34.016Z,1013.85
2018-09-11T08:34:34.450Z,1013.82
2018-09-11T08:35:34.864Z,1013.82
2018-09-11T08:36:35.390Z,1013.79
2018-09-11T08:37:35.487Z,1013.81
2018-09-11T08:38:35.604Z,1013.81
2018-09-11T08:39:35.601Z,1013.81
2018-09-11T08:40:35.855Z,1013.76
2018-09-11T08:41:36.225Z,1013.77
2018-09-11T08:42:36.459Z,1013.80
2018-09-11T08:43:36.753Z,1013.82
2018-09-11T08:44:37.059Z,1013.79
2018-09-11T08:45:37.152Z,1013.84
2018-09-11T08:46:37.323Z,1013.83
2018-09-11T08:47:37.238Z,1013.88
2018-09-11T08:48:37.575Z,1013.81
2018-09-11T08:49:37.960Z,1013.82
2018-09-11T08:50:38.329Z,1013.79
2018-09-11T08:51:38.714Z,1013.80
2018-09-11T08:52:39.260Z,1013.85
2018-09-11T08:53:39.439Z,1013.87
2018-09-11T08:54:39.658Z,1013.85
2018-09-11T08:55:39.900Z,1013.68
2018-09-11T08:56:40.053Z,1013.82
2018-09-11T08:57:40.249Z,1013.80
2018-09-11T08:58:40.538Z,1013.81
2018-09-11T08:59:40.756Z,1013.73
2018-09-11T09:00:40.967Z,1013.76
2018-09-11T09:01:41.318Z,1013.76
2018-09-11T09:02:41.568Z,1013.78
2018-09-11T09:03:41.663Z,1013.82
2018-09-11T09:04:41.883Z,1013.86
2018-09-11T09:05:42.097Z,1013.82
2018-09-11T09:06:42.245Z,1013.84
2018-09-11T09:07:42.478Z,1013.87
2018-09-11T09:08:42.843Z,1013.84
2018-09-11T09:09:43.028Z,1013.85
2018-09-11T09:10:43.209Z,1013.79
2018-09-11T09:11:43.417Z,1013.81
2018-09-11T09:12:43.632Z,1013.82
2018-09-11T09:13:43.852Z,1013.85
2018-09-11T09:14:44.054Z,1013.85
2018-09-11T09:15:44.269Z,1013.86
2018-09-11T09:16:44.498Z,1013.90
2018-09-11T09:17:44.672Z,1013.80
2018-09-11T09:18:44.782Z,1013.76
2018-09-11T09:19:45.000Z,1013.81
2018-09-11T09:20:45.268Z,1013.72
2018-09-11T09:21:45.440Z,1013.84
2018-09-11T09:22:45.659Z,1013.68
2018-09-11T09:23:45.959Z,1013.74
2018-09-11T09:24:46.097Z,1013.72
2018-09-11T09:25:46.407Z,1013.70
2018-09-11T09:26:46.585Z,1013.66
2018-09-11T09:27:46.831Z,1013.70
2018-09-11T09:28:47.002Z,1013.65
2018-09-11T09:29:47.214Z,1013.63
2018-09-11T09:30:47.469Z,1013.59
2018-09-11T09:31:47.653Z,1013.76
2018-09-11T09:32:47.930Z,1013.73
2018-09-11T09:33:48.346Z,1013.69
2018-09-11T09:34:49.274Z,1013.63
2018-09-11T09:35:49.280Z,1013.63
2018-09-11T09:36:49.560Z,1013.66
2018-09-11T09:37:49.710Z,1013.61
2018-09-11T09:38:50.224Z,1013.55
2018-09-11T09:39:50.227Z,1013.56
2018-09-11T09:40:50.132Z,1013.57
2018-09-11T09:41:50.455Z,1013.51
2018-09-11T09:42:51.068Z,1013.56
2018-09-11T09:43:51.117Z,1013.48
2018-09-11T09:44:50.956Z,1013.51
2018-09-11T09:45:51.133Z,1013.61
2018-09-11T09:46:51.308Z,1013.61
2018-09-11T09:47:51.507Z,1013.62
2018-09-11T09:48:51.624Z,1013.61
2018-09-11T09:49:52.021Z,1013.63
2018-09-11T09:50:52.290Z,1013.71
2018-09-11T09:51:52.107Z,1013.62
2018-09-11T09:52:52.565Z,1013.66
2018-09-11T09:53:52.902Z,1013.63
2018-09-11T09:54:53.296Z,1013.71
2018-09-11T09:55:53.676Z,1013.68
2018-09-11T09:56:54.047Z,1013.64
2018-09-11T09:57:54.315Z,1013.68
2018-09-11T09:58:54.526Z,1013.63
2018-09-11T09:59:54.689Z,1013.69
2018-09-11T10:00:54.893Z,1013.64
2018-09-11T10:01:55.132Z,1013.58
2018-09-11T10:02:55.306Z,1013.64
2018-09-11T10:03:55.653Z,1013.59
2018-09-11T10:04:55.861Z,1013.65
2018-09-11T10:05:56.053Z,1013.57
2018-09-11T10:06:56.271Z,1013.61
2018-09-11T10:07:56.491Z,1013.51
2018-09-11T10:08:56.614Z,1013.54
2018-09-11T10:09:56.818Z,1013.40
2018-09-11T10:10:56.983Z,1013.26
2018-09-11T10:11:57.229Z,1013.49
2018-09-11T10:12:57.439Z,1013.43
2018-09-11T10:13:57.534Z,1013.36
2018-09-11T10:14:57.832Z,1013.37
2018-09-11T10:15:57.972Z,1013.37
2018-09-11T10:16:58.214Z,1013.44
2018-09-11T10:17:58.397Z,1013.42
2018-09-11T10:18:58.607Z,1013.35
2018-09-11T10:19:58.877Z,1013.31
2018-09-11T10:20:59.197Z,1013.43
2018-09-11T10:21:59.470Z,1013.33
2018-09-11T10:22:59.741Z,1013.26
2018-09-11T10:23:59.969Z,1013.29
2018-09-11T10:25:00.235Z,1013.28
2018-09-11T10:26:00.411Z,1013.23
2018-09-11T10:27:00.595Z,1013.27
2018-09-11T10:28:00.759Z,1013.37
2018-09-11T10:29:00.892Z,1013.29
2018-09-11T10:30:01.295Z,1013.26
2018-09-11T10:31:01.474Z,1013.23
2018-09-11T10:32:02.022Z,1013.28
2018-09-11T10:33:01.634Z,1013.14
2018-09-11T10:34:01.824Z,1013.27
2018-09-11T10:35:01.886Z,1013.27
2018-09-11T10:36:02.357Z,1013.19
2018-09-11T10:37:02.790Z,1013.19
2018-09-11T10:38:03.070Z,1013.18
2018-09-11T10:39:04.133Z,1013.28
2018-09-11T10:40:04.024Z,1013.17
2018-09-11T10:41:04.125Z,1013.20
2018-09-11T10:42:04.353Z,1013.12
2018-09-11T10:43:04.685Z,1013.06
2018-09-11T10:44:05.088Z,1013.07
2018-09-11T10:45:05.666Z,1013.00
2018-09-11T10:46:05.815Z,1013.02
2018-09-11T10:47:06.233Z,1013.01
2018-09-11T10:48:06.760Z,1013.09
2018-09-11T10:49:06.658Z,1012.94
2018-09-11T10:50:06.971Z,1012.99
2018-09-11T10:51:07.169Z,1013.01
2018-09-11T10:52:07.137Z,1013.00
2018-09-11T10:53:07.476Z,1012.91
2018-09-11T10:54:07.917Z,1012.88
2018-09-11T10:55:08.324Z,1012.89
2018-09-11T10:56:08.413Z,1012.80
2018-09-11T10:57:08.796Z,1012.90
2018-09-11T10:58:09.102Z,1012.82
2018-09-11T10:59:09.254Z,1012.88
2018-09-11T11:00:09.573Z,1012.89
2018-09-11T11:02:09.944Z,1012.68
2018-09-11T11:03:10.399Z,1012.74
2018-09-11T11:04:10.580Z,1012.82
2018-09-11T11:05:10.833Z,1012.78
2018-09-11T11:06:10.924Z,1012.73
2018-09-11T11:07:11.094Z,1012.73
2018-09-11T11:08:11.305Z,1012.78
2018-09-11T11:09:11.522Z,1012.74
2018-09-11T11:10:11.731Z,1012.69
2018-09-11T11:11:11.948Z,1012.62
2018-09-11T11:12:12.237Z,1012.64
2018-09-11T11:13:12.380Z,1012.64
2018-09-11T11:14:12.708Z,1012.71
2018-09-11T11:15:13.274Z,1012.71
2018-09-11T11:16:13.075Z,1012.65
2018-09-11T11:17:13.355Z,1012.72
2018-09-11T11:18:13.321Z,1012.68
2018-09-11T11:19:13.600Z,1012.65
2018-09-11T11:20:13.898Z,1012.62
2018-09-11T11:21:14.067Z,1012.65
2018-09-11T11:22:14.291Z,1012.61
2018-09-11T11:23:14.494Z,1012.64
2018-09-11T11:24:14.767Z,1012.65
2018-09-11T11:25:15.258Z,1012.62
2018-09-11T11:26:15.517Z,1012.48
2018-09-11T11:27:15.770Z,1012.45
2018-09-11T11:30:16.250Z,1012.59
2018-09-11T11:31:16.490Z,1012.63
2018-09-11T11:32:16.693Z,1012.55
2018-09-11T11:33:17.047Z,1012.52
2018-09-11T11:34:17.212Z,1012.54
2018-09-11T11:35:17.458Z,1012.43
2018-09-11T11:36:17.680Z,1012.50
2018-09-11T11:37:17.969Z,1012.53
2018-09-11T11:38:18.555Z,1012.52
2018-09-11T11:39:18.758Z,1012.62
2018-09-11T11:40:18.959Z,1012.59
2018-09-11T11:41:19.282Z,1012.57
2018-09-11T11:42:19.742Z,1012.56
2018-09-11T11:43:20.123Z,1012.53
2018-09-11T11:44:20.736Z,1012.55
2018-09-11T11:45:21.036Z,1012.68
2018-09-11T11:46:21.040Z,1012.52
2018-09-11T11:47:21.266Z,1012.48
2018-09-11T11:48:21.705Z,1012.43
2018-09-11T11:49:21.893Z,1012.42
2018-09-11T11:50:21.989Z,1012.42
2018-09-11T11:51:21.966Z,1012.42
2018-09-11T11:52:22.363Z,1012.49
2018-09-11T11:53:22.803Z,1012.36
2018-09-11T11:54:23.266Z,1012.38
2018-09-11T11:55:23.406Z,1012.37
2018-09-11T11:56:23.780Z,1012.38
2018-09-11T11:57:24.213Z,1012.34
2018-09-11T11:58:24.500Z,1012.37
2018-09-11T11:59:24.721Z,1012.30
2018-09-11T12:00:24.963Z,1012.40
2018-09-11T12:01:25.265Z,1012.27
2018-09-11T12:02:25.450Z,1012.35
2018-09-11T12:03:25.648Z,1012.39
2018-09-11T12:04:26.001Z,1012.28
2018-09-11T12:05:26.256Z,1012.33
2018-09-11T12:06:26.456Z,1012.36
2018-09-11T12:07:26.895Z,1012.32
2018-09-11T12:08:27.065Z,1012.27
2018-09-11T12:09:27.292Z,1012.27
2018-09-11T12:10:27.487Z,1012.29
2018-09-11T12:11:27.584Z,1012.39
2018-09-11T12:12:27.921Z,1012.23
2018-09-11T12:13:28.296Z,1012.22
2018-09-11T12:14:28.527Z,1012.28
2018-09-11T12:15:28.795Z,1012.24